Ufa, Russia
Current Conditions -  °F | °C
As of 12:30 AM on Friday 28 Nov 2014 (Local Time) from UWUU Reporting Station
Light Snow Light Snow  
Wind Chill:   Ceiling: 1300
Heat Index: 18°   Visibility: 2.8mi
Dew Point: 18°   Wind: 7mph
Humidity: 100%   Direction: 130°SE
Pressure: 30.59"   Gusts: NA
Location:  54.78°N, 56.04°E
Report Text: UWUU 271930Z 13003MPS 4500 -SN OVC013 M08/M08 Q1036 14491046NOSIG RMK QFE766/1021
Loading
Personal Weather Stations






























Interactive Weather Map New forecast layout! Learn more

10-Day Weather Forecast

Advertisements
Track Severe Weather on mobile